createdAt,value
2018-07-25T00:00:23.535Z,66.17
2018-07-25T00:00:49.136Z,66.17
2018-07-25T00:01:14.697Z,66.37
2018-07-25T00:01:40.278Z,66.17
2018-07-25T00:02:05.868Z,66.37
2018-07-25T00:02:31.450Z,66.17
2018-07-25T00:02:57.002Z,66.08
2018-07-25T00:03:22.585Z,66.08
2018-07-25T00:03:48.157Z,66.17
2018-07-25T00:04:13.732Z,66.37
2018-07-25T00:04:39.299Z,66.08
2018-07-25T00:05:04.877Z,66.37
2018-07-25T00:05:30.447Z,66.37
2018-07-25T00:05:56.044Z,66.37
2018-07-25T00:06:21.611Z,66.37
2018-07-25T00:06:47.210Z,66.08
2018-07-25T00:07:12.776Z,66.37
2018-07-25T00:07:38.355Z,66.08
2018-07-25T00:08:03.933Z,66.37
2018-07-25T00:08:29.513Z,66.37
2018-07-25T00:08:55.097Z,66.37
2018-07-25T00:09:20.659Z,66.08
2018-07-25T00:09:46.246Z,66.17
2018-07-25T00:10:11.810Z,66.27
2018-07-25T00:10:37.388Z,66.37
2018-07-25T00:11:02.955Z,66.37
2018-07-25T00:11:28.545Z,66.37
2018-07-25T00:11:54.113Z,66.27
2018-07-25T00:12:19.685Z,66.37
2018-07-25T00:12:45.256Z,66.08
2018-07-25T00:13:10.842Z,66.27
2018-07-25T00:13:36.413Z,66.08
2018-07-25T00:14:01.985Z,66.37
2018-07-25T00:14:27.554Z,66.17
2018-07-25T00:14:53.139Z,66.37
2018-07-25T00:15:18.715Z,66.37
2018-07-25T00:15:44.273Z,66.37
2018-07-25T00:16:09.851Z,66.17
2018-07-25T00:16:35.425Z,65.98
2018-07-25T00:17:01.018Z,65.98
2018-07-25T00:17:26.597Z,65.98
2018-07-25T00:17:52.161Z,66.27
2018-07-25T00:18:17.740Z,65.98
2018-07-25T00:18:43.307Z,66.27
2018-07-25T00:19:08.876Z,66.27
2018-07-25T00:19:34.462Z,66.47
2018-07-25T00:20:00.037Z,66.27
2018-07-25T00:20:25.622Z,66.27
2018-07-25T00:20:51.193Z,66.27
2018-07-25T00:21:16.763Z,66.27
2018-07-25T00:21:42.344Z,65.98
2018-07-25T00:22:07.907Z,66.27
2018-07-25T00:22:33.494Z,65.89
2018-07-25T00:22:59.070Z,65.98
2018-07-25T00:23:24.656Z,65.98
2018-07-25T00:23:50.232Z,65.89
2018-07-25T00:24:15.797Z,65.89
2018-07-25T00:24:41.395Z,65.79
2018-07-25T00:25:06.951Z,66.27
2018-07-25T00:25:32.548Z,65.98
2018-07-25T00:25:58.119Z,65.79
2018-07-25T00:26:23.694Z,65.98
2018-07-25T00:26:49.249Z,66.27
2018-07-25T00:27:14.854Z,65.79
2018-07-25T00:27:40.425Z,65.79
2018-07-25T00:28:05.999Z,66.37
2018-07-25T00:28:31.593Z,65.98
2018-07-25T00:28:57.187Z,65.79
2018-07-25T00:29:22.769Z,65.89
2018-07-25T00:29:48.348Z,66.27
2018-07-25T00:30:13.924Z,66.08
2018-07-25T00:30:39.498Z,65.89
2018-07-25T00:31:05.085Z,65.98
2018-07-25T00:31:30.658Z,66.08
2018-07-25T00:31:56.230Z,65.89
2018-07-25T00:32:21.810Z,65.98
2018-07-25T00:32:47.376Z,65.89
2018-07-25T00:33:12.968Z,65.79
2018-07-25T00:33:38.544Z,65.98
2018-07-25T00:34:04.136Z,65.98
2018-07-25T00:34:29.712Z,65.89
2018-07-25T00:34:55.298Z,65.89
2018-07-25T00:35:20.866Z,65.98
2018-07-25T00:35:46.439Z,65.89
2018-07-25T00:36:12.057Z,66.08
2018-07-25T00:36:37.592Z,66.08
2018-07-25T00:37:03.168Z,65.98
2018-07-25T00:37:28.730Z,65.98
2018-07-25T00:37:54.305Z,66.08
2018-07-25T00:38:19.883Z,65.89
2018-07-25T00:38:45.458Z,66.17
2018-07-25T00:39:11.026Z,65.89
2018-07-25T00:39:36.578Z,65.89
2018-07-25T00:40:02.144Z,65.89
2018-07-25T00:40:27.722Z,66.27
2018-07-25T00:40:53.297Z,65.89
2018-07-25T00:41:18.868Z,66.17
2018-07-25T00:41:44.444Z,65.89
2018-07-25T00:42:10.042Z,65.98
2018-07-25T00:42:35.691Z,66.17
2018-07-25T00:43:01.259Z,65.89
2018-07-25T00:43:26.838Z,65.98
2018-07-25T00:43:52.424Z,66.17
2018-07-25T00:44:17.978Z,66.17
2018-07-25T00:44:43.546Z,65.98
2018-07-25T00:45:09.132Z,66.27
2018-07-25T00:45:34.707Z,66.17
2018-07-25T00:46:00.274Z,66.17
2018-07-25T00:46:25.846Z,66.08
2018-07-25T00:46:51.413Z,66.17
2018-07-25T00:47:17.026Z,66.17
2018-07-25T00:47:42.590Z,65.98
2018-07-25T00:48:08.164Z,66.08
2018-07-25T00:48:33.731Z,65.98
2018-07-25T00:48:59.306Z,65.98
2018-07-25T00:49:24.884Z,66.17
2018-07-25T00:49:50.447Z,65.89
2018-07-25T00:50:16.029Z,66.17
2018-07-25T00:50:41.590Z,65.98
2018-07-25T00:51:07.169Z,66.08
2018-07-25T00:51:32.738Z,65.98
2018-07-25T00:51:58.308Z,65.89
2018-07-25T00:52:23.881Z,65.89
2018-07-25T00:52:49.460Z,66.08
2018-07-25T00:53:15.042Z,65.98
2018-07-25T00:53:40.619Z,65.98
2018-07-25T00:54:06.191Z,65.89
2018-07-25T00:54:31.770Z,65.69
2018-07-25T00:54:57.361Z,65.98
2018-07-25T00:55:23.004Z,65.98
2018-07-25T00:55:48.518Z,65.98
2018-07-25T00:56:14.082Z,65.89
2018-07-25T00:56:39.661Z,65.98
2018-07-25T00:57:05.249Z,65.98
2018-07-25T00:57:30.822Z,65.98
2018-07-25T00:57:56.394Z,65.89
2018-07-25T00:58:21.962Z,65.98
2018-07-25T00:58:47.592Z,65.89
2018-07-25T00:59:13.182Z,65.98
2018-07-25T00:59:38.768Z,65.98
2018-07-25T01:00:04.334Z,65.79
2018-07-25T01:00:29.912Z,65.89
2018-07-25T01:00:55.484Z,65.89
2018-07-25T01:01:21.045Z,65.89
2018-07-25T01:01:46.623Z,65.89
2018-07-25T01:02:12.178Z,65.89
2018-07-25T01:02:37.751Z,65.98
2018-07-25T01:03:03.325Z,65.79
2018-07-25T01:03:28.888Z,65.89
2018-07-25T01:03:54.460Z,65.79
2018-07-25T01:04:20.661Z,65.98
2018-07-25T01:04:46.238Z,65.79
2018-07-25T01:05:11.827Z,65.98
2018-07-25T01:05:37.405Z,65.98
2018-07-25T01:06:03.000Z,65.79
2018-07-25T01:06:28.572Z,65.98
2018-07-25T01:06:54.144Z,65.79
2018-07-25T01:07:19.726Z,65.89
2018-07-25T01:07:45.298Z,65.89
2018-07-25T01:08:10.874Z,65.79
2018-07-25T01:08:36.448Z,65.79
2018-07-25T01:09:02.020Z,65.79
2018-07-25T01:09:27.587Z,65.89
2018-07-25T01:09:53.162Z,65.79
2018-07-25T01:10:18.742Z,65.79
2018-07-25T01:10:44.324Z,65.79
2018-07-25T01:11:09.896Z,65.89
2018-07-25T01:11:35.470Z,65.79
2018-07-25T01:12:01.039Z,65.89
2018-07-25T01:12:26.616Z,65.79
2018-07-25T01:12:52.198Z,65.79
2018-07-25T01:13:17.775Z,65.79
2018-07-25T01:13:43.346Z,65.79
2018-07-25T01:14:08.936Z,65.98
2018-07-25T01:14:34.492Z,65.79
2018-07-25T01:15:00.064Z,65.98
2018-07-25T01:15:25.638Z,65.79
2018-07-25T01:15:51.202Z,65.98
2018-07-25T01:16:16.806Z,65.98
2018-07-25T01:16:42.374Z,65.98
2018-07-25T01:17:07.952Z,65.79
2018-07-25T01:17:33.537Z,65.98
2018-07-25T01:17:59.126Z,65.79
2018-07-25T01:18:24.682Z,65.79
2018-07-25T01:18:50.271Z,65.79
2018-07-25T01:19:15.838Z,65.98
2018-07-25T01:19:41.410Z,65.98
2018-07-25T01:20:06.988Z,66.08
2018-07-25T01:20:32.576Z,65.69
2018-07-25T01:20:58.157Z,66.08
2018-07-25T01:21:23.736Z,65.98
2018-07-25T01:21:49.310Z,65.98
2018-07-25T01:22:14.886Z,65.98
2018-07-25T01:22:40.459Z,65.98
2018-07-25T01:23:06.034Z,65.98
2018-07-25T01:23:31.597Z,65.89
2018-07-25T01:23:57.172Z,65.98
2018-07-25T01:24:22.765Z,65.69
2018-07-25T01:24:48.333Z,65.89
2018-07-25T01:25:13.890Z,65.98
2018-07-25T01:25:39.467Z,65.98
2018-07-25T01:26:05.038Z,65.98
2018-07-25T01:26:30.602Z,65.98
2018-07-25T01:26:56.177Z,65.98
2018-07-25T01:27:21.761Z,65.98
2018-07-25T01:27:47.333Z,65.98
2018-07-25T01:28:12.927Z,65.98
2018-07-25T01:28:38.511Z,65.98
2018-07-25T01:29:04.083Z,65.89
2018-07-25T01:29:29.660Z,65.98
2018-07-25T01:29:55.254Z,65.79
2018-07-25T01:30:20.838Z,65.79
2018-07-25T01:30:46.404Z,65.89
2018-07-25T01:31:11.963Z,65.79
2018-07-25T01:31:37.552Z,65.89
2018-07-25T01:32:03.130Z,65.79
2018-07-25T01:32:28.700Z,65.79
2018-07-25T01:32:54.288Z,65.89
2018-07-25T01:33:19.862Z,66.08
2018-07-25T01:33:45.429Z,65.79
2018-07-25T01:34:11.012Z,65.69
2018-07-25T01:34:36.591Z,65.79
2018-07-25T01:35:02.185Z,65.79
2018-07-25T01:35:27.766Z,66.08
2018-07-25T01:35:53.338Z,66.08
2018-07-25T01:36:18.919Z,65.89
2018-07-25T01:36:44.502Z,66.08
2018-07-25T01:37:10.062Z,65.79
2018-07-25T01:37:35.642Z,66.08
2018-07-25T01:38:01.215Z,66.08
2018-07-25T01:38:26.783Z,65.98
2018-07-25T01:38:52.372Z,65.98
2018-07-25T01:39:17.953Z,65.98
2018-07-25T01:39:43.519Z,65.79
2018-07-25T01:40:09.088Z,66.08
2018-07-25T01:40:34.668Z,65.59
2018-07-25T01:41:00.248Z,66.08
2018-07-25T01:41:25.830Z,66.08
2018-07-25T01:41:51.384Z,66.08
2018-07-25T01:42:16.968Z,66.08
2018-07-25T01:42:42.555Z,66.08
2018-07-25T01:43:08.137Z,66.27
2018-07-25T01:43:33.705Z,66.08
2018-07-25T01:43:59.278Z,66.08
2018-07-25T01:44:24.862Z,66.08
2018-07-25T01:44:50.419Z,65.98
2018-07-25T01:45:15.980Z,66.08
2018-07-25T01:45:41.568Z,66.08
2018-07-25T01:46:07.144Z,65.98
2018-07-25T01:46:32.730Z,66.08
2018-07-25T01:46:58.296Z,66.08
2018-07-25T01:47:23.887Z,66.08
2018-07-25T01:47:49.462Z,66.08
2018-07-25T01:48:15.042Z,66.08
2018-07-25T01:48:40.625Z,65.98
2018-07-25T01:49:06.198Z,66.08
2018-07-25T01:49:31.766Z,65.98
2018-07-25T01:49:57.342Z,66.08
2018-07-25T01:50:22.920Z,65.98
2018-07-25T01:50:48.477Z,65.98
2018-07-25T01:51:14.066Z,66.08
2018-07-25T01:51:39.652Z,66.08
2018-07-25T01:52:05.215Z,66.08
2018-07-25T01:52:30.774Z,65.98
2018-07-25T01:52:56.360Z,66.08
2018-07-25T01:53:21.939Z,66.08
2018-07-25T01:53:47.503Z,66.08
2018-07-25T01:54:13.074Z,65.98
2018-07-25T01:54:38.635Z,65.98
2018-07-25T01:55:04.198Z,65.89
2018-07-25T01:55:29.770Z,65.98
2018-07-25T01:55:55.325Z,65.89
2018-07-25T01:56:20.889Z,65.98
2018-07-25T01:56:46.473Z,65.79
2018-07-25T01:57:12.056Z,66.27
2018-07-25T01:57:37.634Z,65.98
2018-07-25T01:58:03.201Z,66.17
2018-07-25T01:58:28.768Z,65.79
2018-07-25T01:58:54.346Z,65.98
2018-07-25T01:59:19.911Z,65.89
2018-07-25T01:59:45.470Z,65.79
2018-07-25T02:00:11.046Z,66.17
2018-07-25T02:00:36.613Z,66.17
2018-07-25T02:01:02.190Z,65.89
2018-07-25T02:01:27.781Z,65.98
2018-07-25T02:01:53.322Z,65.89
2018-07-25T02:02:18.894Z,66.17
2018-07-25T02:02:44.474Z,66.17
2018-07-25T02:03:10.059Z,66.08
2018-07-25T02:03:35.636Z,65.89
2018-07-25T02:04:01.215Z,66.37
2018-07-25T02:04:26.789Z,66.27
2018-07-25T02:04:52.390Z,66.17
2018-07-25T02:05:17.971Z,65.79
2018-07-25T02:05:43.542Z,66.17
2018-07-25T02:06:09.108Z,66.37
2018-07-25T02:06:34.685Z,66.17
2018-07-25T02:07:00.258Z,66.27
2018-07-25T02:07:25.831Z,66.17
2018-07-25T02:07:51.403Z,66.17
2018-07-25T02:08:17.066Z,66.17
2018-07-25T02:08:42.558Z,66.17
2018-07-25T02:09:08.125Z,66.17
2018-07-25T02:09:33.698Z,66.37
2018-07-25T02:09:59.279Z,66.37
2018-07-25T02:10:24.862Z,66.17
2018-07-25T02:10:50.424Z,66.27
2018-07-25T02:11:15.976Z,65.98
2018-07-25T02:11:41.536Z,66.37
2018-07-25T02:12:07.104Z,65.89
2018-07-25T02:12:32.671Z,66.17
2018-07-25T02:12:58.253Z,66.17
2018-07-25T02:13:23.818Z,66.17
2018-07-25T02:13:49.400Z,66.08
2018-07-25T02:14:14.968Z,66.17
2018-07-25T02:14:40.550Z,65.98
2018-07-25T02:15:06.128Z,65.59
2018-07-25T02:15:31.688Z,66.17
2018-07-25T02:15:57.251Z,66.17
2018-07-25T02:16:22.832Z,65.98
2018-07-25T02:16:48.422Z,66.08
2018-07-25T02:17:13.993Z,65.98
2018-07-25T02:17:39.586Z,65.89
2018-07-25T02:18:05.151Z,65.98
2018-07-25T02:18:30.726Z,65.98
2018-07-25T02:18:57.450Z,65.98
2018-07-25T02:19:23.025Z,66.37
2018-07-25T02:19:48.594Z,65.59
2018-07-25T02:20:14.162Z,65.59
2018-07-25T02:20:39.746Z,65.98
2018-07-25T02:21:05.311Z,66.17
2018-07-25T02:21:30.926Z,65.59
2018-07-25T02:21:56.503Z,65.59
2018-07-25T02:22:22.070Z,65.98
2018-07-25T02:22:47.649Z,65.98
2018-07-25T02:23:13.221Z,65.69
2018-07-25T02:23:38.802Z,65.98
2018-07-25T02:24:04.378Z,65.69
2018-07-25T02:24:29.959Z,65.59
2018-07-25T02:24:55.528Z,65.59
2018-07-25T02:25:21.088Z,65.69
2018-07-25T02:25:46.664Z,65.69
2018-07-25T02:26:12.253Z,65.79
2018-07-25T02:26:37.848Z,65.59
2018-07-25T02:27:03.408Z,65.89
2018-07-25T02:27:28.990Z,65.59
2018-07-25T02:27:54.565Z,65.79
2018-07-25T02:28:20.152Z,65.59
2018-07-25T02:28:45.723Z,65.79
2018-07-25T02:29:11.300Z,65.69
2018-07-25T02:29:36.857Z,65.69
2018-07-25T02:30:02.422Z,65.69
2018-07-25T02:30:28.000Z,65.79
2018-07-25T02:30:53.568Z,65.79
2018-07-25T02:31:19.144Z,65.59
2018-07-25T02:31:44.718Z,65.89
2018-07-25T02:32:10.298Z,65.79
2018-07-25T02:32:35.868Z,65.69
2018-07-25T02:33:01.442Z,65.79
2018-07-25T02:33:27.024Z,65.89
2018-07-25T02:33:52.602Z,65.98
2018-07-25T02:34:18.202Z,66.08
2018-07-25T02:34:43.770Z,65.79
2018-07-25T02:35:09.356Z,66.08
2018-07-25T02:35:34.913Z,65.79
2018-07-25T02:36:00.477Z,66.08
2018-07-25T02:36:26.050Z,65.79
2018-07-25T02:36:51.628Z,66.08
2018-07-25T02:37:17.195Z,65.79
2018-07-25T02:37:42.767Z,65.79
2018-07-25T02:38:08.344Z,65.98
2018-07-25T02:38:33.926Z,65.98
2018-07-25T02:38:59.483Z,65.89
2018-07-25T02:39:25.069Z,66.08
2018-07-25T02:39:50.641Z,66.08
2018-07-25T02:40:16.205Z,65.79
2018-07-25T02:40:41.768Z,65.89
2018-07-25T02:41:07.358Z,65.89
2018-07-25T02:41:32.940Z,65.89
2018-07-25T02:41:58.503Z,65.98
2018-07-25T02:42:24.094Z,66.08
2018-07-25T02:42:49.660Z,65.89
2018-07-25T02:43:15.255Z,65.89
2018-07-25T02:43:40.907Z,66.08
2018-07-25T02:44:06.390Z,65.89
2018-07-25T02:44:31.963Z,65.89
2018-07-25T02:44:57.532Z,65.89
2018-07-25T02:45:23.102Z,66.08
2018-07-25T02:45:48.676Z,65.89
2018-07-25T02:46:14.252Z,65.89
2018-07-25T02:46:39.824Z,65.89
2018-07-25T02:47:05.396Z,65.89
2018-07-25T02:47:30.948Z,65.79
2018-07-25T02:47:56.519Z,65.89
2018-07-25T02:48:22.085Z,65.89
2018-07-25T02:48:47.656Z,65.89
2018-07-25T02:49:13.227Z,65.89
2018-07-25T02:49:38.793Z,65.89
2018-07-25T02:50:04.374Z,65.79
2018-07-25T02:50:29.963Z,65.89
2018-07-25T02:50:55.568Z,65.79
2018-07-25T02:51:21.147Z,65.79
2018-07-25T02:51:46.726Z,65.89
2018-07-25T02:52:12.311Z,65.79
2018-07-25T02:52:37.892Z,65.89
2018-07-25T02:53:03.454Z,65.89
2018-07-25T02:53:29.020Z,65.79
2018-07-25T02:53:54.599Z,65.79
2018-07-25T02:54:20.230Z,65.89
2018-07-25T02:54:45.838Z,65.98
2018-07-25T02:55:11.432Z,65.98
2018-07-25T02:55:37.141Z,65.89
2018-07-25T02:56:02.719Z,65.69
2018-07-25T02:56:28.236Z,65.79
2018-07-25T02:56:53.941Z,65.69
2018-07-25T02:57:19.466Z,65.79
2018-07-25T02:57:45.044Z,65.79
2018-07-25T02:58:10.610Z,65.79
2018-07-25T02:58:36.221Z,65.98
2018-07-25T02:59:01.772Z,65.69
2018-07-25T02:59:27.362Z,65.89
2018-07-25T02:59:52.914Z,65.79
2018-07-25T03:00:18.496Z,65.69
2018-07-25T03:00:44.048Z,65.79
2018-07-25T03:01:09.610Z,66.08
2018-07-25T03:01:35.179Z,65.98
2018-07-25T03:02:00.748Z,66.17
2018-07-25T03:02:26.353Z,65.98
2018-07-25T03:02:51.958Z,65.98
2018-07-25T03:03:17.553Z,65.98
2018-07-25T03:03:43.119Z,65.98
2018-07-25T03:04:08.687Z,65.79
2018-07-25T03:04:34.252Z,65.5
2018-07-25T03:04:59.820Z,65.98
2018-07-25T03:05:25.411Z,65.98
2018-07-25T03:05:50.983Z,65.5
2018-07-25T03:06:16.559Z,65.59
2018-07-25T03:06:42.120Z,65.5
2018-07-25T03:07:07.705Z,65.98
2018-07-25T03:07:33.267Z,65.59
2018-07-25T03:07:58.842Z,65.5
2018-07-25T03:08:24.408Z,65.59
2018-07-25T03:08:49.992Z,65.89
2018-07-25T03:09:15.561Z,65.98
2018-07-25T03:09:41.153Z,65.98
2018-07-25T03:10:06.738Z,65.5
2018-07-25T03:10:32.286Z,65.59
2018-07-25T03:10:57.861Z,65.5
2018-07-25T03:11:23.453Z,65.5
2018-07-25T03:11:49.014Z,65.5
2018-07-25T03:12:14.625Z,65.79
2018-07-25T03:12:40.184Z,65.59
2018-07-25T03:13:05.761Z,65.98
2018-07-25T03:13:31.331Z,65.98
2018-07-25T03:13:56.925Z,65.4
2018-07-25T03:14:22.507Z,65.4
2018-07-25T03:14:48.081Z,65.59
2018-07-25T03:15:13.647Z,65.89
2018-07-25T03:15:39.214Z,65.69
2018-07-25T03:16:04.779Z,65.89
2018-07-25T03:16:30.349Z,65.4
2018-07-25T03:16:55.907Z,65.5
2018-07-25T03:17:21.480Z,65.69
2018-07-25T03:17:47.054Z,65.4
2018-07-25T03:18:12.645Z,65.69
2018-07-25T03:18:38.223Z,65.69
2018-07-25T03:19:03.786Z,65.59
2018-07-25T03:19:29.359Z,65.98
2018-07-25T03:19:54.937Z,65.69
2018-07-25T03:20:20.490Z,65.69
2018-07-25T03:20:46.073Z,65.69
2018-07-25T03:21:11.647Z,65.79
2018-07-25T03:21:37.221Z,65.59
2018-07-25T03:22:02.785Z,65.79
2018-07-25T03:22:28.371Z,65.59
2018-07-25T03:22:53.955Z,65.59
2018-07-25T03:23:19.527Z,65.79
2018-07-25T03:23:45.107Z,65.69
2018-07-25T03:24:10.683Z,65.59
2018-07-25T03:24:36.253Z,65.69
2018-07-25T03:25:01.839Z,65.89
2018-07-25T03:25:27.411Z,65.59
2018-07-25T03:25:52.965Z,65.59
2018-07-25T03:26:18.533Z,65.69
2018-07-25T03:26:44.105Z,65.59
2018-07-25T03:27:09.673Z,65.59
2018-07-25T03:27:35.250Z,65.59
2018-07-25T03:28:00.832Z,65.69
2018-07-25T03:28:26.410Z,65.59
2018-07-25T03:28:51.965Z,65.79
2018-07-25T03:29:17.540Z,65.59
2018-07-25T03:29:43.113Z,65.69
2018-07-25T03:30:08.681Z,65.59
2018-07-25T03:30:34.253Z,65.69
2018-07-25T03:30:59.850Z,65.59
2018-07-25T03:31:25.494Z,65.69
2018-07-25T03:31:50.976Z,65.5
2018-07-25T03:32:16.537Z,65.69
2018-07-25T03:32:42.110Z,65.69
2018-07-25T03:33:07.693Z,65.79
2018-07-25T03:33:33.266Z,65.3
2018-07-25T03:33:58.842Z,65.5
2018-07-25T03:34:24.410Z,65.79
2018-07-25T03:34:49.996Z,65.5
2018-07-25T03:35:15.568Z,65.5
2018-07-25T03:35:41.141Z,65.5
2018-07-25T03:36:06.697Z,65.79
2018-07-25T03:36:32.262Z,65.5
2018-07-25T03:36:57.829Z,65.5
2018-07-25T03:37:23.455Z,65.5
2018-07-25T03:38:32.206Z,65.5
2018-07-25T03:38:57.772Z,65.69
2018-07-25T03:39:23.348Z,65.5
2018-07-25T03:39:48.929Z,65.5
2018-07-25T03:40:14.489Z,65.59
2018-07-25T03:40:40.046Z,65.5
2018-07-25T03:41:05.628Z,65.5
2018-07-25T03:41:31.201Z,65.59
2018-07-25T03:41:56.768Z,65.79
2018-07-25T03:42:22.348Z,65.4
2018-07-25T03:42:47.930Z,65.59
2018-07-25T03:43:13.503Z,65.5
2018-07-25T03:43:39.076Z,65.59
2018-07-25T03:44:04.649Z,65.69
2018-07-25T03:44:30.207Z,65.79
2018-07-25T03:44:55.778Z,65.98
2018-07-25T03:45:21.340Z,65.79
2018-07-25T03:45:46.903Z,65.79
2018-07-25T03:46:12.465Z,65.59
2018-07-25T03:46:38.044Z,65.79
2018-07-25T03:47:03.616Z,65.79
2018-07-25T03:47:29.177Z,65.5
2018-07-25T03:47:54.746Z,65.5
2018-07-25T03:48:20.318Z,65.2
2018-07-25T03:48:45.879Z,65.79
2018-07-25T03:49:11.457Z,65.79
2018-07-25T03:49:37.021Z,65.59
2018-07-25T03:50:02.612Z,65.98
2018-07-25T03:50:28.173Z,65.59
2018-07-25T03:50:53.744Z,65.69
2018-07-25T03:51:19.369Z,65.59
2018-07-25T03:51:44.946Z,65.79
2018-07-25T03:52:10.507Z,65.59
2018-07-25T03:52:36.085Z,65.79
2018-07-25T03:53:01.657Z,65.59
2018-07-25T03:53:27.229Z,65.59
2018-07-25T03:53:52.803Z,65.5
2018-07-25T03:54:18.379Z,65.4
2018-07-25T03:54:43.944Z,65.5
2018-07-25T03:55:09.512Z,65.89
2018-07-25T03:55:35.069Z,65.4
2018-07-25T03:56:00.635Z,65.4
2018-07-25T03:56:26.218Z,65.59
2018-07-25T03:56:51.796Z,65.4
2018-07-25T03:57:17.371Z,65.59
2018-07-25T03:57:42.931Z,65.4
2018-07-25T03:58:08.511Z,65.59
2018-07-25T03:58:34.079Z,65.59
2018-07-25T03:58:59.645Z,65.4
2018-07-25T03:59:25.201Z,65.4
2018-07-25T03:59:50.791Z,65.4
2018-07-25T04:00:16.371Z,65.4
2018-07-25T04:00:41.945Z,65.4
2018-07-25T04:01:07.521Z,65.4
2018-07-25T04:01:33.098Z,65.89
2018-07-25T04:01:58.693Z,65.4
2018-07-25T04:02:24.346Z,65.4
2018-07-25T04:02:49.911Z,65.89
2018-07-25T04:03:15.488Z,65.5
2018-07-25T04:03:41.079Z,65.4
2018-07-25T04:04:06.645Z,65.4
2018-07-25T04:04:32.225Z,65.4
2018-07-25T04:04:57.793Z,65.4
2018-07-25T04:05:23.365Z,65.3
2018-07-25T04:05:48.941Z,65.4
2018-07-25T04:06:14.507Z,65.4
2018-07-25T04:06:40.089Z,65.3
2018-07-25T04:07:05.656Z,65.5
2018-07-25T04:07:31.241Z,65.4
2018-07-25T04:07:56.808Z,65.3
2018-07-25T04:08:22.390Z,65.3
2018-07-25T04:08:47.961Z,65.3
2018-07-25T04:09:13.583Z,65.3
2018-07-25T04:09:39.116Z,65.3
2018-07-25T04:10:04.697Z,65.3
2018-07-25T04:10:30.287Z,65.3
2018-07-25T04:10:55.855Z,65.59
2018-07-25T04:11:21.421Z,65.3
2018-07-25T04:11:46.991Z,65.3
2018-07-25T04:12:12.575Z,65.2
2018-07-25T04:12:38.145Z,65.59
2018-07-25T04:13:03.742Z,65.3
2018-07-25T04:13:29.299Z,65.59
2018-07-25T04:13:54.858Z,65.59
2018-07-25T04:14:20.427Z,65.4
2018-07-25T04:14:46.008Z,65.4
2018-07-25T04:15:11.590Z,65.59
2018-07-25T04:15:37.173Z,65.3
2018-07-25T04:16:02.751Z,65.5
2018-07-25T04:16:28.309Z,65.5
2018-07-25T04:16:53.886Z,65.5
2018-07-25T04:17:19.444Z,65.3
2018-07-25T04:17:45.010Z,65.5
2018-07-25T04:18:10.588Z,65.5
2018-07-25T04:18:36.161Z,65.5
2018-07-25T04:19:01.742Z,65.4
2018-07-25T04:19:27.317Z,65.5
2018-07-25T04:19:52.888Z,65.5
2018-07-25T04:20:18.463Z,65.4
2018-07-25T04:20:44.039Z,65.5
2018-07-25T04:21:09.604Z,65.59
2018-07-25T04:21:35.177Z,65.59
2018-07-25T04:22:00.802Z,65.5
2018-07-25T04:22:26.373Z,65.69
2018-07-25T04:22:51.945Z,65.4
2018-07-25T04:23:17.514Z,65.69
2018-07-25T04:23:43.090Z,65.59
2018-07-25T04:24:08.651Z,65.5
2018-07-25T04:24:34.231Z,65.4
2018-07-25T04:24:59.796Z,65.5
2018-07-25T04:25:25.376Z,65.59
2018-07-25T04:25:50.946Z,65.5
2018-07-25T04:26:16.520Z,65.4
2018-07-25T04:26:42.090Z,65.5
2018-07-25T04:27:07.664Z,65.5
2018-07-25T04:27:33.225Z,65.4
2018-07-25T04:27:58.790Z,65.69
2018-07-25T04:28:24.372Z,65.5
2018-07-25T04:28:49.950Z,65.5
2018-07-25T04:29:15.525Z,65.4
2018-07-25T04:29:41.099Z,65.4
2018-07-25T04:30:06.664Z,65.5
2018-07-25T04:30:32.235Z,65.4
2018-07-25T04:30:57.798Z,65.4
2018-07-25T04:31:23.365Z,65.69
2018-07-25T04:31:48.948Z,65.98
2018-07-25T04:32:14.521Z,65.5
2018-07-25T04:32:40.088Z,65.4
2018-07-25T04:33:05.652Z,65.69
2018-07-25T04:33:31.221Z,65.79
2018-07-25T04:33:56.798Z,65.4
2018-07-25T04:34:22.386Z,65.4
2018-07-25T04:34:47.995Z,65.69
2018-07-25T04:35:13.528Z,65.79
2018-07-25T04:35:39.099Z,65.69
2018-07-25T04:36:04.662Z,65.69
2018-07-25T04:36:30.241Z,65.69
2018-07-25T04:36:55.827Z,65.69
2018-07-25T04:37:21.398Z,65.2
2018-07-25T04:37:46.962Z,65.59
2018-07-25T04:38:12.522Z,65.4
2018-07-25T04:38:38.072Z,65.69
2018-07-25T04:39:03.666Z,65.3
2018-07-25T04:39:29.242Z,65.98
2018-07-25T04:39:54.812Z,65.98
2018-07-25T04:40:20.374Z,65.59
2018-07-25T04:40:45.972Z,65.89
2018-07-25T04:41:11.539Z,65.69
2018-07-25T04:41:37.111Z,65.69
2018-07-25T04:42:02.680Z,65.3
2018-07-25T04:42:28.265Z,65.69
2018-07-25T04:42:53.834Z,65.3
2018-07-25T04:43:19.404Z,65.3
2018-07-25T04:43:44.967Z,65.98
2018-07-25T04:44:10.515Z,65.2
2018-07-25T04:44:36.115Z,65.3
2018-07-25T04:45:01.676Z,65.3
2018-07-25T04:45:27.262Z,65.4
2018-07-25T04:45:52.852Z,65.3
2018-07-25T04:46:18.551Z,65.3
2018-07-25T04:46:44.021Z,65.2
2018-07-25T04:47:09.566Z,65.2
2018-07-25T04:47:35.140Z,65.4
2018-07-25T04:48:00.735Z,65.11
2018-07-25T04:48:26.338Z,65.3
2018-07-25T04:48:51.911Z,65.11
2018-07-25T04:49:17.482Z,65.4
2018-07-25T04:49:43.040Z,65.3
2018-07-25T04:50:08.606Z,65.4
2018-07-25T04:50:34.196Z,65.3
2018-07-25T04:50:59.767Z,65.11
2018-07-25T04:51:25.326Z,65.4
2018-07-25T04:51:50.892Z,65.3
2018-07-25T04:52:16.478Z,65.11
2018-07-25T04:52:42.061Z,65.11
2018-07-25T04:53:07.632Z,65.4
2018-07-25T04:53:33.212Z,65.4
2018-07-25T04:53:58.773Z,65.3
2018-07-25T04:54:24.360Z,65.01
2018-07-25T04:54:49.930Z,65.3
2018-07-25T04:55:15.506Z,65.3
2018-07-25T04:55:41.129Z,65.3
2018-07-25T04:56:06.714Z,65.4
2018-07-25T04:56:32.273Z,65.3
2018-07-25T04:56:57.902Z,65.01
2018-07-25T04:57:23.465Z,65.01
2018-07-25T04:57:49.043Z,65.3
2018-07-25T04:58:14.615Z,65.4
2018-07-25T04:58:40.193Z,65.4
2018-07-25T04:59:05.760Z,65.2
2018-07-25T04:59:31.338Z,65.01
2018-07-25T04:59:56.906Z,65.37
2018-07-25T05:00:22.482Z,64.98
2018-07-25T05:00:48.052Z,65.4
2018-07-25T05:01:13.613Z,65.01
2018-07-25T05:01:39.192Z,65.01
2018-07-25T05:02:04.779Z,65.3
2018-07-25T05:02:30.356Z,65.4
2018-07-25T05:02:55.951Z,64.91
2018-07-25T05:03:21.528Z,64.91
2018-07-25T05:03:47.100Z,64.91
2018-07-25T05:04:12.677Z,64.91
2018-07-25T05:04:38.241Z,65.01
2018-07-25T05:05:03.811Z,64.91
2018-07-25T05:05:29.379Z,65.01
2018-07-25T05:05:54.961Z,65.01
2018-07-25T05:06:20.532Z,65.01
2018-07-25T05:06:46.111Z,65.2
2018-07-25T05:07:11.728Z,64.91
2018-07-25T05:07:37.266Z,65.01
2018-07-25T05:08:02.849Z,65.2
2018-07-25T05:08:28.418Z,65.2
2018-07-25T05:08:53.988Z,64.91
2018-07-25T05:09:19.571Z,65.01
2018-07-25T05:09:45.137Z,64.91
2018-07-25T05:10:10.720Z,65.4
2018-07-25T05:10:36.289Z,65.27
2018-07-25T05:11:01.876Z,64.91
2018-07-25T05:11:27.454Z,64.91
2018-07-25T05:11:53.040Z,64.91
2018-07-25T05:12:18.601Z,65.01
2018-07-25T05:12:44.169Z,65.2
2018-07-25T05:13:09.752Z,65.3
2018-07-25T05:13:35.358Z,65.3
2018-07-25T05:14:00.928Z,64.91
2018-07-25T05:14:26.518Z,65.2
2018-07-25T05:14:52.112Z,65.4
2018-07-25T05:15:17.700Z,64.91
2018-07-25T05:15:43.277Z,65.2
2018-07-25T05:16:08.857Z,65.4
2018-07-25T05:16:34.429Z,64.91
2018-07-25T05:17:00.010Z,65.4
2018-07-25T05:17:25.613Z,65.2
2018-07-25T05:17:51.246Z,64.91
2018-07-25T05:18:16.755Z,65.2
2018-07-25T05:18:42.328Z,65.01
2018-07-25T05:19:07.904Z,65.01
2018-07-25T05:19:33.481Z,65.2
2018-07-25T05:19:59.048Z,65.2
2018-07-25T05:20:24.636Z,65.2
2018-07-25T05:20:50.196Z,65.2
2018-07-25T05:21:15.775Z,64.91
2018-07-25T05:21:41.349Z,65.2
2018-07-25T05:22:06.924Z,65.2
2018-07-25T05:22:32.489Z,65.4
2018-07-25T05:22:58.054Z,65.2
2018-07-25T05:23:23.639Z,65.3
2018-07-25T05:23:49.189Z,65.2
2018-07-25T05:24:14.755Z,65.4
2018-07-25T05:24:40.329Z,65.2
2018-07-25T05:25:05.903Z,65.2
2018-07-25T05:25:31.476Z,65.2
2018-07-25T05:25:57.048Z,65.01
2018-07-25T05:26:22.600Z,65.2
2018-07-25T05:26:48.195Z,65.2
2018-07-25T05:27:13.754Z,65.01
2018-07-25T05:27:39.320Z,65.2
2018-07-25T05:28:04.893Z,65.2
2018-07-25T05:28:30.472Z,65.3
2018-07-25T05:28:56.055Z,65.2
2018-07-25T05:29:21.627Z,65.2
2018-07-25T05:29:47.203Z,65.2
2018-07-25T05:30:12.807Z,65.3
2018-07-25T05:30:38.364Z,65.2
2018-07-25T05:31:03.957Z,65.17
2018-07-25T05:31:29.543Z,65.2
2018-07-25T05:31:55.104Z,65.2
2018-07-25T05:32:20.699Z,65.2
2018-07-25T05:32:46.291Z,65.2